createdAt,value
2022-08-24T00:04:43.219Z,3.45
2022-08-24T00:09:50.592Z,2.60
2022-08-24T00:14:53.535Z,3.00
2022-08-24T00:19:55.245Z,2.78
2022-08-24T00:24:57.057Z,2.60
2022-08-24T00:29:58.826Z,3.10
2022-08-24T00:35:00.623Z,3.38
2022-08-24T00:40:16.201Z,3.30
2022-08-24T00:45:19.999Z,3.50
2022-08-24T00:50:55.551Z,3.17
2022-08-24T00:56:01.951Z,3.60
2022-08-24T01:01:06.489Z,3.22
2022-08-24T01:06:09.131Z,3.10
2022-08-24T01:11:14.225Z,3.75
2022-08-24T01:16:38.445Z,3.25
2022-08-24T01:21:54.399Z,3.38
2022-08-24T01:26:56.805Z,3.03
2022-08-24T01:31:58.962Z,3.75
2022-08-24T01:37:02.504Z,3.50
2022-08-24T01:42:04.983Z,3.22
2022-08-24T01:47:09.197Z,3.53
2022-08-24T01:52:18.758Z,3.55
2022-08-24T01:57:25.095Z,3.28
2022-08-24T02:02:29.749Z,3.85
2022-08-24T02:07:33.032Z,4.68
2022-08-24T02:12:37.711Z,4.60
2022-08-24T02:17:40.771Z,4.25
2022-08-24T02:22:42.474Z,4.10
2022-08-24T02:27:46.631Z,4.40
2022-08-24T02:32:48.360Z,4.10
2022-08-24T02:37:50.374Z,4.30
2022-08-24T02:42:56.285Z,3.83
2022-08-24T02:47:59.034Z,4.45
2022-08-24T02:53:00.858Z,4.03
2022-08-24T02:58:04.178Z,5.15
2022-08-24T03:03:07.641Z,4.05
2022-08-24T03:08:10.474Z,4.47
2022-08-24T03:13:13.667Z,4.30
2022-08-24T03:18:16.013Z,4.47
2022-08-24T03:23:17.770Z,4.68
2022-08-24T03:28:22.148Z,3.72
2022-08-24T03:33:25.930Z,3.88
2022-08-24T03:38:28.421Z,3.72
2022-08-24T03:43:51.070Z,3.92
2022-08-24T03:48:57.299Z,4.22
2022-08-24T03:53:59.977Z,3.67
2022-08-24T03:59:03.451Z,3.85
2022-08-24T04:04:10.634Z,3.75
2022-08-24T04:09:14.003Z,3.15
2022-08-24T04:14:26.541Z,3.15
2022-08-24T04:19:58.060Z,3.60
2022-08-24T04:25:09.309Z,3.53
2022-08-24T04:30:14.627Z,3.72
2022-08-24T04:40:56.582Z,4.00
2022-08-24T04:46:06.805Z,3.95
2022-08-24T04:51:14.049Z,3.50
2022-08-24T04:56:23.487Z,4.50
2022-08-24T05:01:29.716Z,4.32
2022-08-24T05:06:32.743Z,4.35
2022-08-24T05:11:37.176Z,4.68
2022-08-24T05:16:40.418Z,4.68
2022-08-24T05:21:47.398Z,4.40
2022-08-24T05:26:49.908Z,4.00
2022-08-24T05:31:52.021Z,3.65
2022-08-24T05:36:54.347Z,4.78
2022-08-24T05:42:31.785Z,4.70
2022-08-24T05:47:34.855Z,4.63
2022-08-24T05:52:43.037Z,4.50
2022-08-24T05:57:46.102Z,4.53
2022-08-24T06:02:54.240Z,5.00
2022-08-24T06:07:57.736Z,4.30
2022-08-24T06:13:00.666Z,4.75
2022-08-24T06:18:04.733Z,4.70
2022-08-24T06:23:07.617Z,4.60
2022-08-24T06:28:13.729Z,3.70
2022-08-24T06:33:15.528Z,4.40
2022-08-24T06:38:19.891Z,4.10
2022-08-24T06:43:24.529Z,3.45
2022-08-24T06:48:28.138Z,4.18
2022-08-24T06:53:30.099Z,3.13
2022-08-24T06:58:33.110Z,3.33
2022-08-24T07:03:35.846Z,3.75
2022-08-24T07:08:53.267Z,3.60
2022-08-24T07:13:55.121Z,3.90
2022-08-24T07:18:58.942Z,4.15
2022-08-24T07:24:03.353Z,4.22
2022-08-24T07:29:36.775Z,3.90
2022-08-24T07:39:42.689Z,3.30
2022-08-24T07:44:46.058Z,3.17
2022-08-24T07:49:48.249Z,3.63
2022-08-24T07:54:50.239Z,3.72
2022-08-24T07:59:52.032Z,3.90
2022-08-24T08:04:56.957Z,3.30
2022-08-24T08:10:01.957Z,2.83
2022-08-24T08:15:06.317Z,3.10
2022-08-24T08:20:10.252Z,2.92
2022-08-24T08:25:13.091Z,2.75
2022-08-24T08:30:15.811Z,3.10
2022-08-24T08:35:19.060Z,3.50
2022-08-24T08:40:48.263Z,2.80
2022-08-24T08:46:04.742Z,5.93
2022-08-24T08:51:31.394Z,3.17
2022-08-24T08:56:46.955Z,3.47
2022-08-24T09:02:15.272Z,3.38
2022-08-24T09:08:15.362Z,2.53
2022-08-24T09:13:45.795Z,2.28
2022-08-24T09:19:31.796Z,2.40
2022-08-24T09:31:21.982Z,1.90
2022-08-24T09:36:40.194Z,1.77
2022-08-24T09:42:15.243Z,2.10
2022-08-24T09:47:22.782Z,2.28
2022-08-24T09:53:09.016Z,1.50
2022-08-24T09:58:20.232Z,1.67
2022-08-24T10:03:38.541Z,1.63
2022-08-24T10:08:53.507Z,1.53
2022-08-24T10:14:03.936Z,1.48
2022-08-24T10:19:43.026Z,1.60
2022-08-24T10:25:02.656Z,2.00
2022-08-24T10:30:42.212Z,2.40
2022-08-24T10:36:08.060Z,2.22
2022-08-24T10:42:00.940Z,2.25
2022-08-24T10:47:22.360Z,1.90
2022-08-24T10:52:53.331Z,1.70
2022-08-24T10:58:19.551Z,1.52
2022-08-24T11:03:27.761Z,1.95
2022-08-24T11:08:33.485Z,1.65
2022-08-24T11:13:37.353Z,1.23
2022-08-24T11:18:54.291Z,1.30
2022-08-24T11:24:02.291Z,1.75
2022-08-24T11:29:04.707Z,1.60
2022-08-24T11:34:15.160Z,1.35
2022-08-24T11:39:37.651Z,1.67
2022-08-24T11:45:08.058Z,1.65
2022-08-24T11:50:26.932Z,2.08
2022-08-24T11:55:47.092Z,1.70
2022-08-24T12:00:59.541Z,1.90
2022-08-24T12:06:08.465Z,1.90
2022-08-24T12:11:34.869Z,2.30
2022-08-24T12:16:45.660Z,1.90
2022-08-24T12:21:53.189Z,2.08
2022-08-24T12:27:11.717Z,2.00
2022-08-24T12:32:19.568Z,2.00
2022-08-24T12:43:32.855Z,2.28
2022-08-24T12:48:58.846Z,1.77
2022-08-24T12:54:19.068Z,1.88
2022-08-24T12:59:26.444Z,1.95
2022-08-24T13:04:27.938Z,1.83
2022-08-24T13:09:37.003Z,2.03
2022-08-24T13:20:06.836Z,1.42
2022-08-24T13:25:42.740Z,1.50
2022-08-24T13:30:53.615Z,1.98
2022-08-24T13:36:17.604Z,1.65
2022-08-24T13:41:44.073Z,1.50
2022-08-24T13:47:01.600Z,1.80
2022-08-24T13:52:31.019Z,1.35
2022-08-24T13:57:44.583Z,1.40
2022-08-24T14:03:22.080Z,1.30
2022-08-24T14:08:36.250Z,1.77
2022-08-24T14:13:56.223Z,1.35
2022-08-24T14:19:19.848Z,1.77
2022-08-24T14:24:27.032Z,1.40
2022-08-24T14:29:32.718Z,1.30
2022-08-24T14:34:55.516Z,1.48
2022-08-24T14:40:17.141Z,1.42
2022-08-24T14:45:37.236Z,1.30
2022-08-24T14:50:48.183Z,1.00
2022-08-24T14:56:07.727Z,1.50
2022-08-24T15:01:15.251Z,1.25
2022-08-24T15:06:27.984Z,1.15
2022-08-24T15:11:30.212Z,1.50
2022-08-24T15:16:53.774Z,1.58
2022-08-24T15:22:05.406Z,1.17
2022-08-24T15:27:18.661Z,1.48
2022-08-24T15:32:21.706Z,1.48
2022-08-24T15:37:33.515Z,1.30
2022-08-24T15:42:37.121Z,1.10
2022-08-24T15:47:46.478Z,1.35
2022-08-24T15:53:00.990Z,1.30
2022-08-24T15:58:23.661Z,1.75
2022-08-24T16:03:50.231Z,1.40
2022-08-24T16:09:16.315Z,1.20
2022-08-24T16:14:28.524Z,1.13
2022-08-24T16:19:34.151Z,1.00
2022-08-24T16:24:38.939Z,1.25
2022-08-24T16:29:45.130Z,1.13
2022-08-24T16:34:52.951Z,1.30
2022-08-24T16:39:54.628Z,1.10
2022-08-24T16:44:58.203Z,1.35
2022-08-24T16:49:59.765Z,1.50
2022-08-24T16:55:01.570Z,1.20
2022-08-24T17:00:17.013Z,1.40
2022-08-24T17:05:19.066Z,1.20
2022-08-24T17:10:23.155Z,1.20
2022-08-24T17:15:24.789Z,1.00
2022-08-24T17:20:26.356Z,1.27
2022-08-24T17:25:30.105Z,1.38
2022-08-24T17:30:32.104Z,1.63
2022-08-24T17:35:34.016Z,1.38
2022-08-24T17:40:35.674Z,1.08
2022-08-24T17:45:37.291Z,1.20
2022-08-24T17:50:39.352Z,1.42
2022-08-24T17:55:40.943Z,1.20
2022-08-24T18:00:43.252Z,1.50
2022-08-24T18:05:44.850Z,1.60
2022-08-24T18:10:46.399Z,1.65
2022-08-24T18:15:49.594Z,1.48
2022-08-24T18:20:51.178Z,1.30
2022-08-24T18:25:53.822Z,1.40
2022-08-24T18:30:55.995Z,1.48
2022-08-24T18:36:00.773Z,1.20
2022-08-24T18:41:02.517Z,1.35
2022-08-24T18:46:06.254Z,1.55
2022-08-24T18:51:07.950Z,1.67
2022-08-24T18:56:12.563Z,1.50
2022-08-24T19:01:14.711Z,1.40
2022-08-24T19:06:16.628Z,1.52
2022-08-24T19:17:19.923Z,1.52
2022-08-24T19:22:21.577Z,1.30
2022-08-24T19:27:24.759Z,1.30
2022-08-24T19:32:29.590Z,1.35
2022-08-24T19:37:31.185Z,1.38
2022-08-24T19:42:32.843Z,1.50
2022-08-24T19:47:34.872Z,1.70
2022-08-24T19:52:37.742Z,1.67
2022-08-24T19:57:48.628Z,1.40
2022-08-24T20:02:53.656Z,2.17
2022-08-24T20:07:56.213Z,2.10
2022-08-24T20:12:57.805Z,1.75
2022-08-24T20:18:00.245Z,2.13
2022-08-24T20:23:05.968Z,1.98
2022-08-24T20:33:30.373Z,2.20
2022-08-24T20:38:33.814Z,1.80
2022-08-24T20:43:35.343Z,2.10
2022-08-24T20:48:41.888Z,1.77
2022-08-24T20:53:45.384Z,1.95
2022-08-24T20:58:46.956Z,2.20
2022-08-24T21:03:48.569Z,1.75
2022-08-24T21:08:52.437Z,2.25
2022-08-24T21:13:53.993Z,1.60
2022-08-24T21:18:55.521Z,1.77
2022-08-24T21:23:57.078Z,1.80
2022-08-24T21:28:58.705Z,1.77
2022-08-24T21:34:19.113Z,2.00
2022-08-24T21:39:21.586Z,2.00
2022-08-24T21:44:23.212Z,1.80
2022-08-24T21:49:25.555Z,2.03
2022-08-24T21:54:27.148Z,2.03
2022-08-24T21:59:28.723Z,1.77
2022-08-24T22:04:31.129Z,2.28
2022-08-24T22:09:32.989Z,2.10
2022-08-24T22:14:34.623Z,2.53
2022-08-24T22:19:36.170Z,1.95
2022-08-24T22:24:37.717Z,2.20
2022-08-24T22:29:39.273Z,2.20
2022-08-24T22:34:40.833Z,2.28
2022-08-24T22:39:42.393Z,2.38
2022-08-24T22:44:44.099Z,2.38
2022-08-24T22:49:45.721Z,2.20
2022-08-24T22:54:47.270Z,2.15
2022-08-24T22:59:49.027Z,2.40
2022-08-24T23:04:52.454Z,2.20
2022-08-24T23:09:54.063Z,2.20
2022-08-24T23:14:58.843Z,2.30
2022-08-24T23:20:00.715Z,2.00
2022-08-24T23:25:02.903Z,2.25
2022-08-24T23:30:06.738Z,2.63
2022-08-24T23:35:08.969Z,2.60
2022-08-24T23:40:11.174Z,2.67
2022-08-24T23:45:12.857Z,3.00
2022-08-24T23:50:16.976Z,2.10
2022-08-24T23:55:21.337Z,3.00
